sensor_id;sensor_type;location;lat;lon;timestamp;temperature;humidity
66831;DHT22;53739;44.224;22.528;2023-02-01T00:01:24;103.10;6476.80
66831;DHT22;53739;44.224;22.528;2023-02-01T00:03:50;103.00;128.00
66831;DHT22;53739;44.224;22.528;2023-02-01T00:06:15;103.00;6476.80
66831;DHT22;53739;44.224;22.528;2023-02-01T00:08:41;102.90;6476.80
66831;DHT22;53739;44.224;22.528;2023-02-01T00:11:10;102.80;6476.80
66831;DHT22;53739;44.224;22.528;2023-02-01T00:13:39;102.80;6476.80
66831;DHT22;53739;44.224;22.528;2023-02-01T00:16:17;102.80;6476.80
66831;DHT22;53739;44.224;22.528;2023-02-01T00:18:44;102.80;6476.80
66831;DHT22;53739;44.224;22.528;2023-02-01T00:21:11;102.70;6476.80
66831;DHT22;53739;44.224;22.528;2023-02-01T00:23:37;102.70;6476.80
66831;DHT22;53739;44.224;22.528;2023-02-01T00:26:06;102.60;6476.80
66831;DHT22;53739;44.224;22.528;2023-02-01T00:28:32;102.60;6476.80
66831;DHT22;53739;44.224;22.528;2023-02-01T00:31:00;102.50;6476.80
66831;DHT22;53739;44.224;22.528;2023-02-01T00:33:27;102.50;6476.80
66831;DHT22;53739;44.224;22.528;2023-02-01T00:35:57;102.50;6476.80
66831;DHT22;53739;44.224;22.528;2023-02-01T00:38:24;102.50;6476.80
66831;DHT22;53739;44.224;22.528;2023-02-01T00:40:50;102.40;6476.80
66831;DHT22;53739;44.224;22.528;2023-02-01T00:43:15;102.50;6476.80
66831;DHT22;53739;44.224;22.528;2023-02-01T00:45:41;102.40;6476.80
66831;DHT22;53739;44.224;22.528;2023-02-01T00:48:07;102.40;6476.80
66831;DHT22;53739;44.224;22.528;2023-02-01T00:50:32;102.40;6476.80
66831;DHT22;53739;44.224;22.528;2023-02-01T00:52:58;102.40;6476.80
66831;DHT22;53739;44.224;22.528;2023-02-01T00:55:25;102.50;6476.80
66831;DHT22;53739;44.224;22.528;2023-02-01T00:57:51;102.50;6476.80
66831;DHT22;53739;44.224;22.528;2023-02-01T01:00:17;102.50;6476.80
66831;DHT22;53739;44.224;22.528;2023-02-01T01:02:43;102.50;6476.80
66831;DHT22;53739;44.224;22.528;2023-02-01T01:05:08;102.50;6476.80
66831;DHT22;53739;44.224;22.528;2023-02-01T01:07:34;102.60;6476.80
66831;DHT22;53739;44.224;22.528;2023-02-01T01:10:00;102.60;6476.80
66831;DHT22;53739;44.224;22.528;2023-02-01T01:12:25;102.60;6476.80
66831;DHT22;53739;44.224;22.528;2023-02-01T01:14:51;102.60;6476.80
66831;DHT22;53739;44.224;22.528;2023-02-01T01:17:17;102.60;6476.80
66831;DHT22;53739;44.224;22.528;2023-02-01T01:19:43;102.60;6476.80
66831;DHT22;53739;44.224;22.528;2023-02-01T01:22:08;102.70;6476.80
66831;DHT22;53739;44.224;22.528;2023-02-01T01:24:34;102.70;6476.80
66831;DHT22;53739;44.224;22.528;2023-02-01T01:27:00;102.70;6476.80
66831;DHT22;53739;44.224;22.528;2023-02-01T01:29:26;102.80;6476.80
66831;DHT22;53739;44.224;22.528;2023-02-01T01:31:54;102.90;6476.80
66831;DHT22;53739;44.224;22.528;2023-02-01T01:34:20;102.90;6476.80
66831;DHT22;53739;44.224;22.528;2023-02-01T01:36:46;102.90;6476.80
66831;DHT22;53739;44.224;22.528;2023-02-01T01:39:11;103.00;6476.80
66831;DHT22;53739;44.224;22.528;2023-02-01T01:41:37;103.00;6476.80
66831;DHT22;53739;44.224;22.528;2023-02-01T01:44:05;103.00;6476.80
66831;DHT22;53739;44.224;22.528;2023-02-01T01:46:36;103.00;6476.80
66831;DHT22;53739;44.224;22.528;2023-02-01T01:49:05;103.00;6476.80
66831;DHT22;53739;44.224;22.528;2023-02-01T01:51:36;102.90;6476.80
66831;DHT22;53739;44.224;22.528;2023-02-01T01:54:18;102.90;6476.80
66831;DHT22;53739;44.224;22.528;2023-02-01T01:56:52;102.90;6476.80
66831;DHT22;53739;44.224;22.528;2023-02-01T01:59:22;102.90;6476.80
66831;DHT22;53739;44.224;22.528;2023-02-01T02:01:49;102.90;6476.80
66831;DHT22;53739;44.224;22.528;2023-02-01T02:04:15;102.90;6476.80
66831;DHT22;53739;44.224;22.528;2023-02-01T02:07:02;102.80;6476.80
66831;DHT22;53739;44.224;22.528;2023-02-01T02:09:29;102.90;6476.80
66831;DHT22;53739;44.224;22.528;2023-02-01T02:11:55;102.90;6476.80
66831;DHT22;53739;44.224;22.528;2023-02-01T02:14:23;102.90;6476.80
66831;DHT22;53739;44.224;22.528;2023-02-01T02:23:18;103.00;6476.80
66831;DHT22;53739;44.224;22.528;2023-02-01T02:27:59;103.00;6476.80
66831;DHT22;53739;44.224;22.528;2023-02-01T02:36:19;103.10;6476.80
66831;DHT22;53739;44.224;22.528;2023-02-01T02:39:21;103.20;6476.80
66831;DHT22;53739;44.224;22.528;2023-02-01T02:45:21;103.20;6476.80
66831;DHT22;53739;44.224;22.528;2023-02-01T02:48:25;103.20;6476.80
66831;DHT22;53739;44.224;22.528;2023-02-01T02:53:42;103.30;6476.80
66831;DHT22;53739;44.224;22.528;2023-02-01T02:56:30;103.30;6476.80
66831;DHT22;53739;44.224;22.528;2023-02-01T02:59:17;103.30;6476.80
66831;DHT22;53739;44.224;22.528;2023-02-01T03:02:03;128.00;6502.40
66831;DHT22;53739;44.224;22.528;2023-02-01T03:04:55;128.00;6502.40
66831;DHT22;53739;44.224;22.528;2023-02-01T03:12:41;128.10;6502.40
66831;DHT22;53739;44.224;22.528;2023-02-01T03:15:26;128.10;6502.40
66831;DHT22;53739;44.224;22.528;2023-02-01T03:17:54;128.10;6502.40
66831;DHT22;53739;44.224;22.528;2023-02-01T03:20:21;128.10;6502.40
66831;DHT22;53739;44.224;22.528;2023-02-01T03:22:48;128.10;6502.40
66831;DHT22;53739;44.224;22.528;2023-02-01T03:25:26;128.10;6502.40
66831;DHT22;53739;44.224;22.528;2023-02-01T03:28:04;128.20;6502.40
66831;DHT22;53739;44.224;22.528;2023-02-01T03:30:38;128.20;6502.40
66831;DHT22;53739;44.224;22.528;2023-02-01T03:33:12;128.20;6502.40
66831;DHT22;53739;44.224;22.528;2023-02-01T03:36:05;128.20;6502.40
66831;DHT22;53739;44.224;22.528;2023-02-01T03:44:13;128.20;537.60
66831;DHT22;53739;44.224;22.528;2023-02-01T03:47:03;128.20;6502.40
66831;DHT22;53739;44.224;22.528;2023-02-01T03:49:34;128.20;6502.40
66831;DHT22;53739;44.224;22.528;2023-02-01T03:52:01;128.20;6502.40
66831;DHT22;53739;44.224;22.528;2023-02-01T03:54:29;128.20;537.60
66831;DHT22;53739;44.224;22.528;2023-02-01T03:56:59;128.20;6502.40
66831;DHT22;53739;44.224;22.528;2023-02-01T03:59:25;128.20;307.20
66831;DHT22;53739;44.224;22.528;2023-02-01T04:01:51;128.20;6502.40
66831;DHT22;53739;44.224;22.528;2023-02-01T04:04:18;128.20;6502.40
66831;DHT22;53739;44.224;22.528;2023-02-01T04:06:48;128.30;6502.40
66831;DHT22;53739;44.224;22.528;2023-02-01T04:09:14;128.20;6502.40
66831;DHT22;53739;44.224;22.528;2023-02-01T04:11:40;128.30;537.60
66831;DHT22;53739;44.224;22.528;2023-02-01T04:14:06;128.30;128.00
66831;DHT22;53739;44.224;22.528;2023-02-01T04:16:32;128.30;307.20
66831;DHT22;53739;44.224;22.528;2023-02-01T04:18:58;128.30;307.20
66831;DHT22;53739;44.224;22.528;2023-02-01T04:21:27;128.30;128.00
66831;DHT22;53739;44.224;22.528;2023-02-01T04:23:54;128.20;128.00
66831;DHT22;53739;44.224;22.528;2023-02-01T04:26:20;128.20;153.60
66831;DHT22;53739;44.224;22.528;2023-02-01T04:28:46;128.20;6502.40
66831;DHT22;53739;44.224;22.528;2023-02-01T04:31:16;128.10;6502.40
66831;DHT22;53739;44.224;22.528;2023-02-01T04:33:43;128.10;6502.40
66831;DHT22;53739;44.224;22.528;2023-02-01T04:36:09;128.00;563.20
66831;DHT22;53739;44.224;22.528;2023-02-01T04:38:35;128.00;358.40
66831;DHT22;53739;44.224;22.528;2023-02-01T04:41:01;128.00;6502.40
66831;DHT22;53739;44.224;22.528;2023-02-01T04:43:27;128.00;6502.40
66831;DHT22;53739;44.224;22.528;2023-02-01T04:45:53;128.00;6502.40
66831;DHT22;53739;44.224;22.528;2023-02-01T04:48:20;128.00;6502.40
66831;DHT22;53739;44.224;22.528;2023-02-01T04:50:47;128.00;6502.40
66831;DHT22;53739;44.224;22.528;2023-02-01T04:53:14;103.30;6476.80
66831;DHT22;53739;44.224;22.528;2023-02-01T04:55:41;103.30;6476.80
66831;DHT22;53739;44.224;22.528;2023-02-01T04:58:07;103.30;6476.80
66831;DHT22;53739;44.224;22.528;2023-02-01T05:00:33;103.30;6476.80
66831;DHT22;53739;44.224;22.528;2023-02-01T05:02:58;103.30;6476.80
66831;DHT22;53739;44.224;22.528;2023-02-01T05:05:24;103.20;6476.80
66831;DHT22;53739;44.224;22.528;2023-02-01T05:07:50;103.20;6476.80
66831;DHT22;53739;44.224;22.528;2023-02-01T05:10:16;103.30;6476.80
66831;DHT22;53739;44.224;22.528;2023-02-01T05:12:43;103.20;6476.80
66831;DHT22;53739;44.224;22.528;2023-02-01T05:15:29;103.20;6476.80
66831;DHT22;53739;44.224;22.528;2023-02-01T05:17:55;103.10;6476.80
66831;DHT22;53739;44.224;22.528;2023-02-01T05:20:20;103.10;6476.80
66831;DHT22;53739;44.224;22.528;2023-02-01T05:22:46;103.10;6476.80
66831;DHT22;53739;44.224;22.528;2023-02-01T05:25:12;103.00;6476.80
66831;DHT22;53739;44.224;22.528;2023-02-01T05:27:37;103.10;6476.80
66831;DHT22;53739;44.224;22.528;2023-02-01T05:30:05;103.10;6476.80
66831;DHT22;53739;44.224;22.528;2023-02-01T05:32:31;103.10;6476.80
66831;DHT22;53739;44.224;22.528;2023-02-01T05:34:57;103.00;6476.80
66831;DHT22;53739;44.224;22.528;2023-02-01T05:37:22;103.00;6476.80
66831;DHT22;53739;44.224;22.528;2023-02-01T05:39:48;103.00;6476.80
66831;DHT22;53739;44.224;22.528;2023-02-01T05:42:14;103.00;6476.80
66831;DHT22;53739;44.224;22.528;2023-02-01T05:44:40;103.10;6476.80
66831;DHT22;53739;44.224;22.528;2023-02-01T05:47:05;103.10;6476.80
66831;DHT22;53739;44.224;22.528;2023-02-01T05:49:31;103.10;6476.80
66831;DHT22;53739;44.224;22.528;2023-02-01T05:51:57;103.10;6476.80
66831;DHT22;53739;44.224;22.528;2023-02-01T05:54:23;103.10;6476.80
66831;DHT22;53739;44.224;22.528;2023-02-01T05:56:48;103.20;6476.80
66831;DHT22;53739;44.224;22.528;2023-02-01T05:59:14;103.20;6476.80
66831;DHT22;53739;44.224;22.528;2023-02-01T06:01:40;103.20;6476.80
66831;DHT22;53739;44.224;22.528;2023-02-01T06:04:06;103.20;6476.80
66831;DHT22;53739;44.224;22.528;2023-02-01T06:06:31;103.20;6476.80
66831;DHT22;53739;44.224;22.528;2023-02-01T06:08:57;103.20;6476.80
66831;DHT22;53739;44.224;22.528;2023-02-01T06:11:23;103.20;6476.80
66831;DHT22;53739;44.224;22.528;2023-02-01T06:13:48;103.10;6476.80
66831;DHT22;53739;44.224;22.528;2023-02-01T06:16:14;103.20;6476.80
66831;DHT22;53739;44.224;22.528;2023-02-01T06:18:41;103.20;6476.80
66831;DHT22;53739;44.224;22.528;2023-02-01T06:21:07;103.20;6476.80
66831;DHT22;53739;44.224;22.528;2023-02-01T06:23:33;103.20;6476.80
66831;DHT22;53739;44.224;22.528;2023-02-01T06:26:05;128.00;6502.40
66831;DHT22;53739;44.224;22.528;2023-02-01T06:28:32;128.00;6502.40
66831;DHT22;53739;44.224;22.528;2023-02-01T06:30:58;128.10;6502.40
66831;DHT22;53739;44.224;22.528;2023-02-01T06:33:27;128.20;6502.40
66831;DHT22;53739;44.224;22.528;2023-02-01T06:35:58;128.30;6502.40
66831;DHT22;53739;44.224;22.528;2023-02-01T06:38:24;128.40;6502.40
66831;DHT22;53739;44.224;22.528;2023-02-01T06:40:56;128.50;6502.40
66831;DHT22;53739;44.224;22.528;2023-02-01T06:43:26;128.50;6502.40
66831;DHT22;53739;44.224;22.528;2023-02-01T06:45:53;128.60;6502.40
66831;DHT22;53739;44.224;22.528;2023-02-01T06:48:19;128.60;6502.40
66831;DHT22;53739;44.224;22.528;2023-02-01T06:50:45;128.70;6502.40
66831;DHT22;53739;44.224;22.528;2023-02-01T06:53:11;128.70;6502.40
66831;DHT22;53739;44.224;22.528;2023-02-01T06:55:36;128.70;6502.40
66831;DHT22;53739;44.224;22.528;2023-02-01T06:58:02;128.70;6502.40
66831;DHT22;53739;44.224;22.528;2023-02-01T07:00:29;128.70;6502.40
66831;DHT22;53739;44.224;22.528;2023-02-01T07:02:55;128.80;6502.40
66831;DHT22;53739;44.224;22.528;2023-02-01T07:05:22;128.90;6502.40
66831;DHT22;53739;44.224;22.528;2023-02-01T07:07:48;153.60;6502.40
66831;DHT22;53739;44.224;22.528;2023-02-01T07:10:14;153.60;6502.40
66831;DHT22;53739;44.224;22.528;2023-02-01T07:12:40;153.70;307.20
66831;DHT22;53739;44.224;22.528;2023-02-01T07:15:06;153.70;6502.40
66831;DHT22;53739;44.224;22.528;2023-02-01T07:17:32;153.80;6502.40
66831;DHT22;53739;44.224;22.528;2023-02-01T07:19:58;154.00;6502.40
66831;DHT22;53739;44.224;22.528;2023-02-01T07:22:27;154.20;6502.40
66831;DHT22;53739;44.224;22.528;2023-02-01T07:24:53;154.40;6502.40
66831;DHT22;53739;44.224;22.528;2023-02-01T07:27:19;179.20;6502.40
66831;DHT22;53739;44.224;22.528;2023-02-01T07:29:45;179.40;6502.40
66831;DHT22;53739;44.224;22.528;2023-02-01T07:32:11;179.60;6502.40
66831;DHT22;53739;44.224;22.528;2023-02-01T07:34:36;179.70;6502.40
66831;DHT22;53739;44.224;22.528;2023-02-01T07:37:02;179.90;6502.40
66831;DHT22;53739;44.224;22.528;2023-02-01T07:39:28;180.10;6502.40
66831;DHT22;53739;44.224;22.528;2023-02-01T07:41:57;204.90;6502.40
66831;DHT22;53739;44.224;22.528;2023-02-01T07:44:22;204.90;6502.40
66831;DHT22;53739;44.224;22.528;2023-02-01T07:46:49;204.90;6502.40
66831;DHT22;53739;44.224;22.528;2023-02-01T07:49:15;205.10;6502.40
66831;DHT22;53739;44.224;22.528;2023-02-01T07:51:43;205.10;6502.40
66831;DHT22;53739;44.224;22.528;2023-02-01T07:54:08;205.30;6502.40
66831;DHT22;53739;44.224;22.528;2023-02-01T07:56:34;205.40;6502.40
66831;DHT22;53739;44.224;22.528;2023-02-01T07:59:01;205.50;6502.40
66831;DHT22;53739;44.224;22.528;2023-02-01T08:01:27;205.70;6502.40
66831;DHT22;53739;44.224;22.528;2023-02-01T08:03:58;230.40;6502.40
66831;DHT22;53739;44.224;22.528;2023-02-01T08:06:25;205.70;6502.40
66831;DHT22;53739;44.224;22.528;2023-02-01T08:08:52;230.40;6502.40
66831;DHT22;53739;44.224;22.528;2023-02-01T08:11:19;230.50;6502.40
66831;DHT22;53739;44.224;22.528;2023-02-01T08:13:45;230.50;6502.40
66831;DHT22;53739;44.224;22.528;2023-02-01T08:16:12;230.70;6502.40
66831;DHT22;53739;44.224;22.528;2023-02-01T08:18:39;230.80;6502.40
66831;DHT22;53739;44.224;22.528;2023-02-01T08:21:07;230.70;6502.40
66831;DHT22;53739;44.224;22.528;2023-02-01T08:23:34;230.80;6502.40
66831;DHT22;53739;44.224;22.528;2023-02-01T08:28:39;230.60;6502.40
66831;DHT22;53739;44.224;22.528;2023-02-01T08:31:13;230.50;6502.40
66831;DHT22;53739;44.224;22.528;2023-02-01T08:33:42;230.60;6502.40
66831;DHT22;53739;44.224;22.528;2023-02-01T08:36:10;230.80;6502.40
66831;DHT22;53739;44.224;22.528;2023-02-01T08:38:37;230.90;6502.40
66831;DHT22;53739;44.224;22.528;2023-02-01T08:41:15;231.00;6502.40
66831;DHT22;53739;44.224;22.528;2023-02-01T08:43:41;231.10;6502.40
66831;DHT22;53739;44.224;22.528;2023-02-01T08:46:08;231.30;6502.40
66831;DHT22;53739;44.224;22.528;2023-02-01T08:48:35;256.10;6502.40
66831;DHT22;53739;44.224;22.528;2023-02-01T08:51:02;256.20;6502.40
66831;DHT22;53739;44.224;22.528;2023-02-01T08:53:29;256.60;6502.40
66831;DHT22;53739;44.224;22.528;2023-02-01T08:55:54;256.50;435.20
66831;DHT22;53739;44.224;22.528;2023-02-01T08:58:20;256.40;460.80
66831;DHT22;53739;44.224;22.528;2023-02-01T09:00:47;256.70;384.00
66831;DHT22;53739;44.224;22.528;2023-02-01T09:03:14;281.60;384.00
66831;DHT22;53739;44.224;22.528;2023-02-01T09:05:40;256.90;332.80
66831;DHT22;53739;44.224;22.528;2023-02-01T09:08:06;281.70;307.20
66831;DHT22;53739;44.224;22.528;2023-02-01T09:10:32;281.80;307.20
66831;DHT22;53739;44.224;22.528;2023-02-01T09:12:58;281.60;281.60
66831;DHT22;53739;44.224;22.528;2023-02-01T09:15:24;282.00;230.40
66831;DHT22;53739;44.224;22.528;2023-02-01T09:17:49;282.20;204.80
66831;DHT22;53739;44.224;22.528;2023-02-01T09:20:15;282.30;204.80
66831;DHT22;53739;44.224;22.528;2023-02-01T09:22:41;282.50;153.60
66831;DHT22;53739;44.224;22.528;2023-02-01T09:25:08;307.20;128.00
66831;DHT22;53739;44.224;22.528;2023-02-01T09:27:34;281.90;128.00
66831;DHT22;53739;44.224;22.528;2023-02-01T09:30:00;282.00;128.00
66831;DHT22;53739;44.224;22.528;2023-02-01T09:32:25;281.90;153.60
66831;DHT22;53739;44.224;22.528;2023-02-01T09:34:52;282.20;128.00
66831;DHT22;53739;44.224;22.528;2023-02-01T09:37:19;307.20;128.00
66831;DHT22;53739;44.224;22.528;2023-02-01T09:39:45;307.30;128.00
66831;DHT22;53739;44.224;22.528;2023-02-01T09:47:52;307.80;128.00
66831;DHT22;53739;44.224;22.528;2023-02-01T09:50:22;307.60;128.00
66831;DHT22;53739;44.224;22.528;2023-02-01T09:55:50;307.60;128.00
66831;DHT22;53739;44.224;22.528;2023-02-01T10:01:24;282.50;128.00
66831;DHT22;53739;44.224;22.528;2023-02-01T10:04:06;282.30;128.00
66831;DHT22;53739;44.224;22.528;2023-02-01T10:15:15;282.10;128.00
66831;DHT22;53739;44.224;22.528;2023-02-01T10:20:40;282.20;128.00
66831;DHT22;53739;44.224;22.528;2023-02-01T10:28:57;282.20;128.00
66831;DHT22;53739;44.224;22.528;2023-02-01T10:31:26;282.30;128.00
66831;DHT22;53739;44.224;22.528;2023-02-01T10:33:57;282.30;128.00
66831;DHT22;53739;44.224;22.528;2023-02-01T10:38:59;307.60;128.00
66831;DHT22;53739;44.224;22.528;2023-02-01T10:41:35;307.90;128.00
66831;DHT22;53739;44.224;22.528;2023-02-01T10:44:04;308.10;128.00
66831;DHT22;53739;44.224;22.528;2023-02-01T10:46:33;332.90;128.00
66831;DHT22;53739;44.224;22.528;2023-02-01T10:49:03;333.00;128.00
66831;DHT22;53739;44.224;22.528;2023-02-01T10:51:47;333.10;128.00
66831;DHT22;53739;44.224;22.528;2023-02-01T10:54:21;333.00;128.00
66831;DHT22;53739;44.224;22.528;2023-02-01T10:56:48;332.80;128.00
66831;DHT22;53739;44.224;22.528;2023-02-01T10:59:16;332.80;128.00
66831;DHT22;53739;44.224;22.528;2023-02-01T11:01:45;332.80;128.00
66831;DHT22;53739;44.224;22.528;2023-02-01T11:04:19;307.80;128.00
66831;DHT22;53739;44.224;22.528;2023-02-01T11:07:36;307.80;128.00
66831;DHT22;53739;44.224;22.528;2023-02-01T11:09:41;307.70;128.00
66831;DHT22;53739;44.224;22.528;2023-02-01T11:12:31;308.10;128.00
66831;DHT22;53739;44.224;22.528;2023-02-01T11:17:43;333.10;128.00
66831;DHT22;53739;44.224;22.528;2023-02-01T11:20:21;333.40;128.00
66831;DHT22;53739;44.224;22.528;2023-02-01T11:22:55;333.70;128.00
66831;DHT22;53739;44.224;22.528;2023-02-01T11:25:23;358.50;128.00
66831;DHT22;53739;44.224;22.528;2023-02-01T11:27:51;358.50;128.00
66831;DHT22;53739;44.224;22.528;2023-02-01T11:30:27;333.70;128.00
66831;DHT22;53739;44.224;22.528;2023-02-01T11:32:56;333.10;128.00
66831;DHT22;53739;44.224;22.528;2023-02-01T11:35:22;332.90;128.00
66831;DHT22;53739;44.224;22.528;2023-02-01T11:37:57;333.30;128.00
66831;DHT22;53739;44.224;22.528;2023-02-01T11:40:35;333.70;153.60
66831;DHT22;53739;44.224;22.528;2023-02-01T11:43:11;333.70;128.00
66831;DHT22;53739;44.224;22.528;2023-02-01T11:45:39;333.50;128.00
66831;DHT22;53739;44.224;22.528;2023-02-01T11:48:09;333.40;128.00
66831;DHT22;53739;44.224;22.528;2023-02-01T11:53:25;333.40;128.00
66831;DHT22;53739;44.224;22.528;2023-02-01T11:59:23;333.40;128.00
66831;DHT22;53739;44.224;22.528;2023-02-01T12:05:21;333.10;179.20
66831;DHT22;53739;44.224;22.528;2023-02-01T12:07:59;333.30;204.80
66831;DHT22;53739;44.224;22.528;2023-02-01T12:11:02;333.30;204.80
66831;DHT22;53739;44.224;22.528;2023-02-01T12:25:31;332.80;128.00
66831;DHT22;53739;44.224;22.528;2023-02-01T12:28:37;308.00;128.00
66831;DHT22;53739;44.224;22.528;2023-02-01T12:52:12;307.80;128.00
66831;DHT22;53739;44.224;22.528;2023-02-01T12:54:46;307.80;281.60
66831;DHT22;53739;44.224;22.528;2023-02-01T12:57:26;307.80;230.40
66831;DHT22;53739;44.224;22.528;2023-02-01T13:00:22;307.70;230.40
66831;DHT22;53739;44.224;22.528;2023-02-01T13:03:23;307.60;153.60
66831;DHT22;53739;44.224;22.528;2023-02-01T13:06:05;307.50;230.40
66831;DHT22;53739;44.224;22.528;2023-02-01T13:08:43;307.60;256.00
66831;DHT22;53739;44.224;22.528;2023-02-01T13:11:26;307.40;256.00
66831;DHT22;53739;44.224;22.528;2023-02-01T13:16:47;307.30;204.80
66831;DHT22;53739;44.224;22.528;2023-02-01T13:19:42;282.50;256.00
66831;DHT22;53739;44.224;22.528;2023-02-01T13:22:33;282.50;256.00
66831;DHT22;53739;44.224;22.528;2023-02-01T13:25:11;282.50;281.60
66831;DHT22;53739;44.224;22.528;2023-02-01T13:27:38;282.30;307.20
66831;DHT22;53739;44.224;22.528;2023-02-01T13:30:22;282.20;230.40
66831;DHT22;53739;44.224;22.528;2023-02-01T13:43:59;281.80;281.60
66831;DHT22;53739;44.224;22.528;2023-02-01T13:46:26;281.80;256.00
66831;DHT22;53739;44.224;22.528;2023-02-01T13:48:58;281.70;230.40
66831;DHT22;53739;44.224;22.528;2023-02-01T13:51:46;281.70;281.60
66831;DHT22;53739;44.224;22.528;2023-02-01T13:54:46;281.70;256.00
66831;DHT22;53739;44.224;22.528;2023-02-01T13:57:36;281.70;256.00
66831;DHT22;53739;44.224;22.528;2023-02-01T14:00:26;281.60;256.00
66831;DHT22;53739;44.224;22.528;2023-02-01T14:21:31;256.60;230.40
66831;DHT22;53739;44.224;22.528;2023-02-01T14:26:49;256.50;153.60
66831;DHT22;53739;44.224;22.528;2023-02-01T14:37:30;256.20;179.20
66831;DHT22;53739;44.224;22.528;2023-02-01T14:40:05;256.20;204.80
66831;DHT22;53739;44.224;22.528;2023-02-01T14:42:44;256.20;230.40
66831;DHT22;53739;44.224;22.528;2023-02-01T14:50:24;256.00;204.80
66831;DHT22;53739;44.224;22.528;2023-02-01T15:01:32;231.10;204.80
66831;DHT22;53739;44.224;22.528;2023-02-01T15:04:12;231.10;281.60
66831;DHT22;53739;44.224;22.528;2023-02-01T15:06:58;231.00;204.80
66831;DHT22;53739;44.224;22.528;2023-02-01T15:09:33;231.00;230.40
66831;DHT22;53739;44.224;22.528;2023-02-01T15:12:02;231.00;256.00
66831;DHT22;53739;44.224;22.528;2023-02-01T15:14:38;230.90;256.00
66831;DHT22;53739;44.224;22.528;2023-02-01T15:17:27;230.90;230.40
66831;DHT22;53739;44.224;22.528;2023-02-01T15:19:57;230.80;281.60
66831;DHT22;53739;44.224;22.528;2023-02-01T15:22:25;230.70;358.40
66831;DHT22;53739;44.224;22.528;2023-02-01T15:24:55;230.60;281.60
66831;DHT22;53739;44.224;22.528;2023-02-01T15:27:21;230.60;128.00
66831;DHT22;53739;44.224;22.528;2023-02-01T15:29:47;230.60;128.00
66831;DHT22;53739;44.224;22.528;2023-02-01T15:32:35;230.60;128.00
66831;DHT22;53739;44.224;22.528;2023-02-01T15:35:01;230.50;6528.00
66831;DHT22;53739;44.224;22.528;2023-02-01T15:37:28;230.50;128.00
66831;DHT22;53739;44.224;22.528;2023-02-01T15:42:58;205.70;128.00
66831;DHT22;53739;44.224;22.528;2023-02-01T15:45:28;205.70;128.00
66831;DHT22;53739;44.224;22.528;2023-02-01T15:47:57;205.70;128.00
66831;DHT22;53739;44.224;22.528;2023-02-01T15:50:23;205.70;128.00
66831;DHT22;53739;44.224;22.528;2023-02-01T15:52:54;205.70;128.00
66831;DHT22;53739;44.224;22.528;2023-02-01T15:55:37;205.60;128.00
66831;DHT22;53739;44.224;22.528;2023-02-01T15:58:19;205.60;128.00
66831;DHT22;53739;44.224;22.528;2023-02-01T16:00:51;205.50;128.00
66831;DHT22;53739;44.224;22.528;2023-02-01T16:03:41;205.50;128.00
66831;DHT22;53739;44.224;22.528;2023-02-01T16:06:25;205.50;128.00
66831;DHT22;53739;44.224;22.528;2023-02-01T16:09:00;205.40;128.00
66831;DHT22;53739;44.224;22.528;2023-02-01T16:11:31;205.40;128.00
66831;DHT22;53739;44.224;22.528;2023-02-01T16:13:59;205.40;128.00
66831;DHT22;53739;44.224;22.528;2023-02-01T16:16:27;205.30;128.00
66831;DHT22;53739;44.224;22.528;2023-02-01T16:18:53;205.20;128.00
66831;DHT22;53739;44.224;22.528;2023-02-01T16:21:19;205.20;153.60
66831;DHT22;53739;44.224;22.528;2023-02-01T16:23:49;205.20;153.60
66831;DHT22;53739;44.224;22.528;2023-02-01T16:26:15;205.10;153.60
66831;DHT22;53739;44.224;22.528;2023-02-01T16:28:41;205.00;179.20
66831;DHT22;53739;44.224;22.528;2023-02-01T16:31:13;205.00;204.80
66831;DHT22;53739;44.224;22.528;2023-02-01T16:33:48;205.00;179.20
66831;DHT22;53739;44.224;22.528;2023-02-01T16:36:15;205.00;179.20
66831;DHT22;53739;44.224;22.528;2023-02-01T16:38:41;204.90;179.20
66831;DHT22;53739;44.224;22.528;2023-02-01T16:41:12;204.90;230.40
66831;DHT22;53739;44.224;22.528;2023-02-01T16:43:37;204.90;256.00
66831;DHT22;53739;44.224;22.528;2023-02-01T16:46:03;204.90;307.20
66831;DHT22;53739;44.224;22.528;2023-02-01T16:48:36;204.80;332.80
66831;DHT22;53739;44.224;22.528;2023-02-01T16:51:07;204.80;332.80
66831;DHT22;53739;44.224;22.528;2023-02-01T16:53:33;180.10;384.00
66831;DHT22;53739;44.224;22.528;2023-02-01T16:55:59;180.10;435.20
66831;DHT22;53739;44.224;22.528;2023-02-01T16:58:26;180.00;537.60
66831;DHT22;53739;44.224;22.528;2023-02-01T17:00:52;180.00;563.20
66831;DHT22;53739;44.224;22.528;2023-02-01T17:03:20;179.90;6502.40
66831;DHT22;53739;44.224;22.528;2023-02-01T17:05:56;179.80;6502.40
66831;DHT22;53739;44.224;22.528;2023-02-01T17:08:29;179.80;6502.40
66831;DHT22;53739;44.224;22.528;2023-02-01T17:10:56;179.80;6502.40
66831;DHT22;53739;44.224;22.528;2023-02-01T17:13:22;179.80;6502.40
66831;DHT22;53739;44.224;22.528;2023-02-01T17:16:01;179.80;6502.40
66831;DHT22;53739;44.224;22.528;2023-02-01T17:18:29;179.70;6502.40
66831;DHT22;53739;44.224;22.528;2023-02-01T17:21:00;179.70;6502.40
66831;DHT22;53739;44.224;22.528;2023-02-01T17:23:27;179.70;6502.40
66831;DHT22;53739;44.224;22.528;2023-02-01T17:25:54;179.70;6502.40
66831;DHT22;53739;44.224;22.528;2023-02-01T17:28:20;179.70;6502.40
66831;DHT22;53739;44.224;22.528;2023-02-01T17:30:46;179.70;6502.40
66831;DHT22;53739;44.224;22.528;2023-02-01T17:33:50;179.70;6502.40
66831;DHT22;53739;44.224;22.528;2023-02-01T17:36:13;179.70;6502.40
66831;DHT22;53739;44.224;22.528;2023-02-01T17:38:39;179.60;6502.40
66831;DHT22;53739;44.224;22.528;2023-02-01T17:41:06;179.50;6502.40
66831;DHT22;53739;44.224;22.528;2023-02-01T17:43:31;179.50;6502.40
66831;DHT22;53739;44.224;22.528;2023-02-01T17:46:14;179.40;6502.40
66831;DHT22;53739;44.224;22.528;2023-02-01T17:48:41;179.30;6502.40
66831;DHT22;53739;44.224;22.528;2023-02-01T17:51:18;179.20;6502.40